Time;durP1;ratioP1;P1;durP2;ratioP2;P2;SDS_P1;SDS_P2;PMS_P1;PMS_P2;Temp;Humidity;BMP_temperature;BMP_pressure;BME280_temperature;BME280_humidity;BME280_pressure;Samples;Min_cycle;Max_cycle;Signal;HPM_P1;HPM_P2
2021/07/28 00:00:58;;;;;;;4.47;3.25;;;30.30;99.90;;;;;;6247138;23;20176;-89
2021/07/28 00:03:32;;;;;;;4.37;3.47;;;30.80;99.90;;;;;;6232793;23;20168;-90
2021/07/28 00:06:03;;;;;;;3.77;3.37;;;30.20;99.90;;;;;;6272348;22;20160;-89
2021/07/28 00:08:34;;;;;;;4.57;3.70;;;30.20;99.90;;;;;;6272477;22;20167;-90
2021/07/28 00:11:12;;;;;;;4.20;3.13;;;30.60;99.90;;;;;;6265759;23;20196;-89
2021/07/28 00:13:44;;;;;;;3.57;3.20;;;30.80;99.90;;;;;;6230884;23;20175;-90
2021/07/28 00:16:15;;;;;;;4.10;3.70;;;31.10;99.90;;;;;;6251047;23;20894;-89
2021/07/28 00:18:55;;;;;;;5.95;3.40;;;30.80;99.90;;;;;;6251073;23;20172;-90
2021/07/28 00:24:13;;;;;;;4.85;4.32;;;30.90;99.90;;;;;;6252895;23;20182;-89
2021/07/28 00:26:45;;;;;;;5.22;4.60;;;31.20;99.50;;;;;;6248799;23;20684;-89
2021/07/28 00:29:16;;;;;;;4.57;4.18;;;31.40;98.40;;;;;;6249608;23;20168;-90
2021/07/28 00:31:48;;;;;;;5.55;4.07;;;31.60;98.30;;;;;;6248021;23;20317;-89
2021/07/28 00:34:21;;;;;;;5.22;4.28;;;31.30;98.20;;;;;;6249362;23;20239;-89
2021/07/28 00:36:52;;;;;;;5.03;4.47;;;31.00;97.70;;;;;;6249585;23;20164;-89
2021/07/28 00:39:23;;;;;;;4.75;4.10;;;31.00;99.30;;;;;;6249058;23;20230;-89
2021/07/28 00:41:54;;;;;;;4.50;4.10;;;30.50;98.50;;;;;;6221515;23;20701;-90
2021/07/28 00:44:25;;;;;;;4.37;3.97;;;30.30;98.70;;;;;;6250031;23;20183;-90
2021/07/28 00:46:56;;;;;;;4.40;4.00;;;30.60;98.30;;;;;;6249845;23;20180;-90
2021/07/28 00:49:29;;;;;;;5.37;4.60;;;30.50;98.70;;;;;;6224037;23;20186;-90
2021/07/28 00:52:02;;;;;;;4.63;4.03;;;30.70;97.40;;;;;;6248826;23;20226;-90
2021/07/28 00:54:33;;;;;;;4.32;3.88;;;30.60;97.80;;;;;;6252784;23;20191;-90
2021/07/28 00:57:05;;;;;;;4.40;4.00;;;30.70;97.50;;;;;;6225979;23;20164;-91
2021/07/28 00:59:37;;;;;;;4.43;4.03;;;30.50;97.50;;;;;;6253697;23;20183;-91
2021/07/28 01:02:08;;;;;;;4.50;3.70;;;30.60;98.00;;;;;;6251820;23;20176;-90
2021/07/28 01:04:41;;;;;;;5.07;3.67;;;30.70;97.80;;;;;;6253640;23;20167;-91
2021/07/28 01:07:12;;;;;;;4.73;4.17;;;30.70;97.40;;;;;;6254956;22;20202;-93
2021/07/28 01:09:48;;;;;;;4.10;3.70;;;30.90;97.80;;;;;;6257532;23;20246;-95
2021/07/28 01:12:23;;;;;;;4.85;3.90;;;31.40;96.80;;;;;;6258613;23;20578;-96
2021/07/28 01:14:54;;;;;;;3.87;3.57;;;31.50;97.00;;;;;;6267303;22;20164;-96
2021/07/28 01:17:26;;;;;;;3.20;2.90;;;31.10;96.60;;;;;;6272301;22;20175;-95
2021/07/28 01:20:09;;;;;;;3.90;3.50;;;31.60;96.60;;;;;;6247606;22;20171;-94
2021/07/28 01:22:40;;;;;;;4.22;3.58;;;32.30;95.20;;;;;;6272045;22;20167;-94
2021/07/28 01:25:14;;;;;;;5.53;3.63;;;32.40;94.90;;;;;;6272772;22;20164;-94
2021/07/28 01:27:46;;;;;;;3.63;3.22;;;32.70;95.40;;;;;;6271004;23;20176;-95
2021/07/28 01:30:19;;;;;;;4.40;3.20;;;32.60;95.00;;;;;;6258989;23;20191;-94
2021/07/28 01:32:52;;;;;;;4.82;3.72;;;33.10;95.70;;;;;;6222720;23;20239;-94
2021/07/28 01:35:24;;;;;;;3.90;3.35;;;33.00;94.80;;;;;;6249855;23;20168;-94
2021/07/28 01:37:55;;;;;;;4.55;3.03;;;33.20;94.70;;;;;;6249228;23;20199;-96
2021/07/28 01:40:29;;;;;;;4.60;2.67;;;33.00;94.50;;;;;;6222592;23;20185;-95
2021/07/28 01:43:00;;;;;;;4.95;3.45;;;32.80;94.50;;;;;;6248110;23;20176;-96
2021/07/28 01:45:30;;;;;;;4.47;3.13;;;33.00;93.90;;;;;;6250232;23;20176;-96
2021/07/28 01:48:02;;;;;;;3.72;3.10;;;33.40;93.80;;;;;;6249286;23;20168;-95
2021/07/28 01:50:33;;;;;;;3.78;3.15;;;33.20;93.80;;;;;;6249494;23;20199;-95
2021/07/28 01:53:06;;;;;;;5.25;3.15;;;33.10;94.60;;;;;;6248694;23;20176;-96
2021/07/28 01:55:39;;;;;;;3.92;2.90;;;33.30;94.20;;;;;;6248947;23;20674;-96
2021/07/28 01:58:10;;;;;;;3.80;2.95;;;33.50;94.20;;;;;;6248757;23;20246;-96
2021/07/28 02:00:43;;;;;;;3.47;3.17;;;33.50;94.90;;;;;;6223769;23;20174;-96
2021/07/28 02:03:14;;;;;;;3.95;2.97;;;33.10;93.30;;;;;;6248628;23;20175;-96
2021/07/28 02:05:46;;;;;;;4.90;3.55;;;33.10;92.90;;;;;;6223711;22;20246;-94
2021/07/28 02:08:18;;;;;;;5.38;3.38;;;33.10;92.80;;;;;;6248518;23;20187;-95
2021/07/28 02:10:52;;;;;;;6.97;3.33;;;32.60;92.70;;;;;;6223160;23;20505;-96
2021/07/28 02:13:23;;;;;;;3.95;3.53;;;31.90;92.70;;;;;;6247872;23;20230;-96
2021/07/28 02:15:54;;;;;;;4.38;3.53;;;30.70;93.90;;;;;;6249059;23;20182;-96
2021/07/28 02:18:27;;;;;;;5.20;3.53;;;30.00;92.90;;;;;;6249755;23;20183;-96
2021/07/28 02:21:01;;;;;;;4.60;3.77;;;29.40;94.00;;;;;;6250117;23;20176;-96
2021/07/28 02:23:32;;;;;;;4.50;3.43;;;28.90;93.90;;;;;;6249136;23;20641;-96
2021/07/28 02:26:05;;;;;;;4.20;3.63;;;28.40;94.00;;;;;;6250642;23;20191;-96
2021/07/28 02:28:37;;;;;;;4.33;3.20;;;28.10;94.60;;;;;;6249132;23;20239;-96
2021/07/28 02:31:07;;;;;;;4.27;3.47;;;27.90;95.40;;;;;;6260019;22;20179;-96
2021/07/28 02:33:39;;;;;;;5.47;3.93;;;27.60;95.20;;;;;;6271947;22;20176;-96
2021/07/28 02:36:10;;;;;;;5.33;3.70;;;27.40;96.60;;;;;;6272110;22;20198;-96
2021/07/28 02:38:41;;;;;;;5.23;3.77;;;27.10;96.10;;;;;;6257737;23;20218;-96
2021/07/28 02:41:13;;;;;;;4.53;3.67;;;26.90;96.50;;;;;;6248692;23;20175;-96
2021/07/28 02:43:48;;;;;;;5.60;3.53;;;26.90;96.80;;;;;;6249947;23;20175;-96
2021/07/28 02:46:21;;;;;;;7.90;3.23;;;26.90;96.90;;;;;;6248781;23;20176;-96
2021/07/28 02:48:52;;;;;;;4.37;3.17;;;26.80;97.60;;;;;;6222737;23;20276;-96
2021/07/28 02:51:23;;;;;;;4.77;3.30;;;26.70;97.90;;;;;;6249626;23;20618;-96
2021/07/28 02:53:54;;;;;;;3.83;3.43;;;26.60;97.60;;;;;;6251278;23;20187;-96
2021/07/28 03:03:08;;;;;;;4.70;3.10;;;26.20;99.30;;;;;;6220383;22;20207;-96
2021/07/28 03:05:42;;;;;;;3.83;3.17;;;26.10;99.80;;;;;;6245643;22;20258;-96
2021/07/28 03:08:17;;;;;;;7.57;3.60;;;26.00;99.90;;;;;;6245899;22;20202;-96
2021/07/28 03:10:50;;;;;;;4.60;3.20;;;25.90;99.90;;;;;;6236047;23;20711;-96
2021/07/28 03:13:21;;;;;;;4.00;3.40;;;25.70;99.90;;;;;;6262484;23;20203;-96
2021/07/28 03:15:54;;;;;;;4.00;3.27;;;25.60;99.90;;;;;;6264615;23;20206;-96
2021/07/28 03:18:28;;;;;;;4.87;3.20;;;25.60;99.90;;;;;;6237495;23;20176;-96
2021/07/28 03:21:00;;;;;;;3.63;2.70;;;25.50;99.90;;;;;;6262174;23;20174;-96
2021/07/28 03:23:32;;;;;;;5.20;4.17;;;25.30;99.90;;;;;;6262768;23;20156;-96
2021/07/28 03:26:06;;;;;;;4.43;3.13;;;25.30;99.90;;;;;;6259711;23;20183;-96
2021/07/28 03:28:40;;;;;;;4.47;3.40;;;25.10;99.90;;;;;;6265951;23;20633;-96
2021/07/28 03:31:13;;;;;;;3.80;3.40;;;25.00;99.90;;;;;;6257142;23;20168;-96
2021/07/28 03:33:51;;;;;;;5.90;3.20;;;24.90;99.90;;;;;;6255836;23;20187;-96
2021/07/28 03:36:29;;;;;;;4.17;3.50;;;24.80;99.90;;;;;;6256116;23;20491;-96
2021/07/28 03:39:01;;;;;;;5.43;3.50;;;24.70;99.90;;;;;;6263982;23;20201;-96
2021/07/28 03:41:37;;;;;;;4.87;3.23;;;24.70;99.90;;;;;;6269077;23;20164;-96
2021/07/28 03:44:09;;;;;;;4.20;3.60;;;24.70;99.90;;;;;;6269096;23;20171;-96
2021/07/28 03:46:41;;;;;;;4.73;3.80;;;24.60;99.90;;;;;;6269552;23;20172;-96
2021/07/28 03:52:58;;;;;;;5.77;4.20;;;24.40;99.90;;;;;;6148242;23;20213;-92
2021/07/28 03:55:30;;;;;;;5.60;4.17;;;24.30;99.90;;;;;;6268907;23;20180;-96
2021/07/28 04:01:52;;;;;;;7.50;4.67;;;24.00;99.90;;;;;;6257645;23;20175;-96
2021/07/28 04:19:14;;;;;;;8.93;6.10;;;23.40;99.90;;;;;;6144808;23;20213;-96
2021/07/28 04:21:47;;;;;;;8.17;6.07;;;23.30;99.90;;;;;;6180229;23;20181;-96
2021/07/28 04:32:24;;;;;;;8.90;6.67;;;22.90;99.90;;;;;;6225485;22;20286;-96
2021/07/28 04:34:58;;;;;;;8.27;5.37;;;22.80;99.90;;;;;;6272787;22;20171;-96
2021/07/28 04:37:30;;;;;;;8.57;5.63;;;22.80;99.90;;;;;;6270141;22;20203;-96
2021/07/28 04:40:03;;;;;;;6.63;4.93;;;22.70;99.90;;;;;;6268694;23;20179;-96
2021/07/28 04:42:36;;;;;;;7.60;5.03;;;22.70;99.90;;;;;;6267922;23;20180;-96
2021/07/28 04:45:09;;;;;;;6.63;5.00;;;22.50;99.90;;;;;;6268981;23;20190;-96
2021/07/28 04:47:50;;;;;;;7.00;4.57;;;22.40;99.90;;;;;;6269077;23;20356;-96
2021/07/28 04:50:25;;;;;;;6.67;5.10;;;22.40;99.90;;;;;;6268279;23;20241;-96
2021/07/28 04:52:56;;;;;;;7.50;5.13;;;22.30;99.90;;;;;;6268862;22;20211;-96
2021/07/28 04:58:04;;;;;;;5.37;4.70;;;22.10;99.90;;;;;;6188943;22;20199;-96
2021/07/28 05:00:36;;;;;;;5.27;4.47;;;22.00;99.90;;;;;;6242076;23;20180;-96
2021/07/28 05:03:11;;;;;;;6.33;4.50;;;21.90;99.90;;;;;;6241487;23;20264;-96
2021/07/28 05:08:49;;;;;;;10.13;6.13;;;21.80;99.90;;;;;;6241613;23;20223;-96
2021/07/28 05:11:29;;;;;;;5.03;4.47;;;21.60;99.90;;;;;;6242569;23;20160;-96
2021/07/28 05:14:13;;;;;;;5.97;4.43;;;21.50;99.90;;;;;;6243378;23;20250;-96
2021/07/28 05:19:52;;;;;;;7.53;4.83;;;21.30;99.90;;;;;;6230551;23;20183;-96
2021/07/28 05:22:39;;;;;;;5.87;4.13;;;21.10;99.90;;;;;;6235824;23;20203;-96
2021/07/28 05:25:22;;;;;;;6.37;4.10;;;21.10;99.90;;;;;;6223588;23;20234;-96
2021/07/28 05:30:44;;;;;;;4.63;3.90;;;20.90;99.90;;;;;;6218254;23;20180;-96
2021/07/28 05:33:19;;;;;;;4.43;3.37;;;20.80;99.90;;;;;;6218336;23;20891;-96
2021/07/28 05:35:50;;;;;;;3.70;3.00;;;20.80;99.90;;;;;;6218692;23;20183;-96
2021/07/28 05:38:34;;;;;;;7.43;3.70;;;20.80;99.90;;;;;;6218710;23;20176;-96
2021/07/28 05:41:09;;;;;;;4.90;2.80;;;20.70;99.90;;;;;;6219056;23;20258;-96
2021/07/28 05:43:53;;;;;;;4.30;3.03;;;20.70;99.90;;;;;;6221426;23;20576;-96
2021/07/28 05:46:25;;;;;;;4.63;3.40;;;20.60;99.90;;;;;;6221167;23;20176;-96
2021/07/28 05:49:10;;;;;;;5.13;2.97;;;20.50;99.90;;;;;;6219251;23;20176;-96
2021/07/28 05:51:44;;;;;;;5.37;2.90;;;20.50;99.90;;;;;;6221178;23;20182;-96
2021/07/28 05:54:20;;;;;;;6.60;3.07;;;20.50;99.90;;;;;;6220031;23;20476;-96
2021/07/28 05:56:51;;;;;;;3.63;2.73;;;20.40;99.90;;;;;;6222811;23;20168;-96
2021/07/28 05:59:24;;;;;;;3.93;2.70;;;20.40;99.90;;;;;;6251059;23;20192;-96
2021/07/28 06:05:07;;;;;;;3.13;2.30;;;20.30;99.90;;;;;;6251303;23;20185;-96
2021/07/28 06:07:41;;;;;;;3.70;2.30;;;20.20;99.90;;;;;;6224923;23;20282;-96
2021/07/28 06:10:23;;;;;;;4.43;2.70;;;20.20;99.90;;;;;;6249831;23;20181;-96
2021/07/28 06:12:56;;;;;;;3.63;2.50;;;20.10;99.90;;;;;;6248912;23;20584;-96
2021/07/28 06:15:27;;;;;;;4.77;2.60;;;20.10;99.90;;;;;;6249398;23;20180;-96
2021/07/28 06:18:01;;;;;;;5.63;2.33;;;20.00;99.90;;;;;;6223669;23;20182;-96
2021/07/28 06:20:35;;;;;;;2.90;2.20;;;20.00;99.90;;;;;;6252253;23;20179;-96
2021/07/28 06:23:08;;;;;;;3.30;2.37;;;19.90;99.90;;;;;;6249311;23;20199;-96
2021/07/28 06:25:44;;;;;;;3.37;2.50;;;19.80;99.90;;;;;;6251144;23;20250;-96
2021/07/28 06:28:17;;;;;;;3.00;2.50;;;19.80;99.90;;;;;;6252053;23;20221;-96
2021/07/28 06:30:56;;;;;;;3.17;2.33;;;19.80;99.90;;;;;;6253491;23;20179;-96
2021/07/28 06:33:34;;;;;;;3.33;2.40;;;19.70;99.90;;;;;;6263374;23;20194;-96
2021/07/28 06:36:06;;;;;;;4.43;2.77;;;19.70;99.90;;;;;;6267312;23;20168;-96
2021/07/28 06:38:39;;;;;;;4.13;2.63;;;19.60;99.90;;;;;;6268991;23;20156;-96
2021/07/28 06:41:14;;;;;;;3.10;2.50;;;19.50;99.90;;;;;;6271606;22;20168;-96
2021/07/28 06:43:47;;;;;;;4.37;2.67;;;19.50;99.90;;;;;;6271896;22;20235;-95
2021/07/28 06:46:19;;;;;;;3.50;2.57;;;19.40;99.90;;;;;;6270872;22;20175;-96
2021/07/28 06:48:50;;;;;;;3.27;2.40;;;19.40;99.90;;;;;;6246281;22;20327;-96
2021/07/28 06:51:24;;;;;;;4.23;2.70;;;19.30;99.90;;;;;;6271963;23;20235;-96
2021/07/28 06:54:00;;;;;;;4.03;2.23;;;19.30;99.90;;;;;;6270447;23;20195;-96
2021/07/28 06:56:37;;;;;;;3.33;2.50;;;19.20;99.90;;;;;;6258787;23;20520;-96
2021/07/28 06:59:08;;;;;;;4.70;3.00;;;19.10;99.90;;;;;;6252259;23;20190;-96
2021/07/28 07:01:40;;;;;;;4.13;2.73;;;19.10;99.90;;;;;;6251388;23;20180;-96
2021/07/28 07:04:11;;;;;;;5.30;3.07;;;19.00;99.90;;;;;;6250790;23;20175;-96
2021/07/28 07:06:47;;;;;;;3.07;2.67;;;19.00;99.90;;;;;;6254263;23;20799;-96
2021/07/28 07:09:22;;;;;;;3.07;2.37;;;18.90;99.90;;;;;;6258836;23;20190;-96
2021/07/28 07:11:55;;;;;;;4.20;2.30;;;18.90;99.90;;;;;;6262006;22;20176;-96
2021/07/28 07:14:29;;;;;;;3.83;2.60;;;18.80;99.90;;;;;;6262889;23;20204;-96
2021/07/28 07:17:03;;;;;;;2.30;1.97;;;18.80;99.90;;;;;;6258227;23;20233;-96
2021/07/28 07:19:35;;;;;;;3.03;2.40;;;18.80;99.90;;;;;;6263570;23;20234;-96
2021/07/28 07:22:06;;;;;;;3.30;2.27;;;18.80;99.90;;;;;;6266210;23;20175;-96
2021/07/28 07:24:38;;;;;;;6.63;2.60;;;18.70;99.90;;;;;;6246737;22;20167;-96
2021/07/28 07:27:13;;;;;;;2.77;2.40;;;18.70;99.90;;;;;;6250500;22;20166;-95
2021/07/28 07:29:48;;;;;;;3.30;2.50;;;18.60;99.90;;;;;;6274481;22;20174;-96
2021/07/28 07:32:23;;;;;;;3.13;2.20;;;18.60;99.90;;;;;;6268356;23;20173;-96
2021/07/28 07:34:54;;;;;;;3.23;2.20;;;18.60;99.90;;;;;;6269511;22;20205;-96
2021/07/28 07:37:26;;;;;;;3.90;2.67;;;18.60;99.90;;;;;;6254644;23;20404;-96
2021/07/28 07:39:58;;;;;;;8.80;2.57;;;18.60;99.90;;;;;;6253411;23;20172;-96
2021/07/28 07:42:33;;;;;;;4.20;2.33;;;18.50;99.90;;;;;;6230815;23;20230;-96
2021/07/28 07:45:05;;;;;;;4.03;2.47;;;18.50;99.90;;;;;;6256820;23;20186;-96
2021/07/28 07:47:36;;;;;;;4.20;2.63;;;18.40;99.90;;;;;;6258442;23;20171;-96
2021/07/28 07:50:08;;;;;;;4.17;2.47;;;18.40;99.90;;;;;;6232660;23;20179;-96
2021/07/28 07:52:40;;;;;;;4.40;2.30;;;18.40;99.90;;;;;;6260514;23;20172;-96
2021/07/28 07:55:26;;;;;;;4.40;2.20;;;18.30;99.90;;;;;;6266764;23;20203;-96
2021/07/28 07:58:12;;;;;;;4.60;2.60;;;18.30;99.90;;;;;;6263528;23;20184;-96
2021/07/28 08:00:44;;;;;;;3.93;2.47;;;18.30;99.90;;;;;;6257250;23;20175;-96
2021/07/28 08:03:16;;;;;;;4.97;2.50;;;18.30;99.90;;;;;;6256995;23;20555;-96
2021/07/28 15:27:34;;;;;;;6.33;3.63;;;20.70;99.90;;;;;;6265257;22;20214;-96
2021/07/28 15:40:51;;;;;;;6.00;3.40;;;19.70;99.90;;;;;;6263545;22;20265;-96
2021/07/28 16:37:17;;;;;;;3.97;3.00;;;20.90;99.90;;;;;;6226254;22;20223;-96
2021/07/28 16:39:51;;;;;;;5.97;2.87;;;20.90;99.90;;;;;;6242251;23;20210;-92
2021/07/28 16:42:22;;;;;;;4.30;2.87;;;21.10;99.90;;;;;;6238016;23;20165;-93
2021/07/28 16:44:54;;;;;;;6.77;2.90;;;21.20;99.90;;;;;;6238342;23;20183;-95
2021/07/28 16:47:25;;;;;;;5.13;3.33;;;21.30;99.90;;;;;;6241652;23;20156;-96
2021/07/28 16:49:56;;;;;;;3.63;2.47;;;21.30;99.90;;;;;;6240333;23;20172;-96
2021/07/28 16:52:29;;;;;;;4.30;2.73;;;21.50;99.90;;;;;;6241829;23;20176;-95
2021/07/28 16:55:01;;;;;;;4.27;2.97;;;21.60;99.90;;;;;;6243130;23;20196;-96
2021/07/28 16:57:32;;;;;;;5.43;2.33;;;21.60;99.90;;;;;;6236887;23;20183;-96
2021/07/28 17:00:08;;;;;;;4.10;2.63;;;21.60;99.90;;;;;;6232575;23;20207;-96
2021/07/28 17:02:44;;;;;;;3.80;2.70;;;21.70;99.90;;;;;;6220549;23;20227;-96
2021/07/28 17:05:17;;;;;;;3.53;2.60;;;21.80;99.90;;;;;;6219978;23;20172;-96
2021/07/28 17:07:53;;;;;;;3.73;2.70;;;22.00;99.90;;;;;;6220256;23;20235;-96
2021/07/28 17:10:26;;;;;;;6.47;2.30;;;22.10;99.90;;;;;;6221849;23;20176;-95
2021/07/28 17:12:58;;;;;;;3.97;2.30;;;22.30;99.90;;;;;;6220859;23;20176;-96
2021/07/28 17:15:31;;;;;;;6.87;2.63;;;22.40;99.90;;;;;;6220603;23;20200;-96
2021/07/28 17:18:02;;;;;;;4.70;2.67;;;22.50;99.90;;;;;;6228125;23;20181;-96
2021/07/28 17:20:33;;;;;;;2.67;2.30;;;22.60;99.90;;;;;;6239098;23;20176;-96
2021/07/28 17:23:10;;;;;;;5.40;2.60;;;22.70;99.90;;;;;;6237855;23;20172;-95
2021/07/28 17:25:42;;;;;;;3.00;2.50;;;22.80;99.90;;;;;;6239417;23;20160;-96
2021/07/28 17:28:12;;;;;;;3.43;2.07;;;22.90;99.90;;;;;;6241165;23;20160;-96
2021/07/28 17:30:44;;;;;;;2.63;2.27;;;23.00;99.90;;;;;;6205485;23;20184;-96
2021/07/28 17:33:16;;;;;;;5.10;2.53;;;23.10;99.90;;;;;;6223063;23;20224;-96
2021/07/28 17:35:50;;;;;;;9.47;2.50;;;23.30;99.90;;;;;;6224376;23;20200;-96
2021/07/28 17:38:28;;;;;;;3.30;2.13;;;23.40;99.90;;;;;;6226139;23;20183;-96
2021/07/28 17:41:03;;;;;;;7.50;2.20;;;23.40;99.90;;;;;;6233354;23;20195;-96
2021/07/28 17:43:35;;;;;;;3.77;2.30;;;23.40;99.90;;;;;;6238011;23;20179;-96
2021/07/28 17:46:08;;;;;;;6.77;2.10;;;23.50;99.90;;;;;;6239234;23;20172;-96
2021/07/28 17:48:39;;;;;;;5.63;2.70;;;23.60;99.90;;;;;;6215250;22;20183;-95
2021/07/28 17:51:14;;;;;;;4.07;2.37;;;23.70;99.90;;;;;;6241496;23;20191;-96
2021/07/28 17:53:49;;;;;;;4.50;2.40;;;23.70;99.90;;;;;;6240201;23;20220;-96
2021/07/28 17:56:21;;;;;;;3.30;2.20;;;23.80;99.90;;;;;;6240600;23;20302;-95
2021/07/28 17:58:52;;;;;;;3.10;2.53;;;24.00;99.90;;;;;;6234978;23;20176;-96
2021/07/28 18:01:24;;;;;;;5.63;2.63;;;24.10;99.90;;;;;;6224342;23;20195;-95
2021/07/28 18:04:01;;;;;;;6.90;2.50;;;24.30;99.90;;;;;;6221052;23;20523;-96
2021/07/28 18:06:54;;;;;;;2.70;2.17;;;24.40;99.90;;;;;;6220227;23;20176;-95
2021/07/28 18:09:28;;;;;;;3.83;2.70;;;24.50;99.90;;;;;;6218622;23;20211;-96
2021/07/28 18:12:00;;;;;;;5.73;2.80;;;24.50;99.90;;;;;;6221059;23;20176;-96
2021/07/28 18:14:31;;;;;;;4.70;2.70;;;24.50;99.90;;;;;;6220148;23;20176;-96
2021/07/28 18:17:06;;;;;;;7.20;2.70;;;24.40;99.90;;;;;;6218393;23;20208;-96
2021/07/28 18:19:38;;;;;;;4.00;2.67;;;24.50;99.90;;;;;;6217841;23;20195;-96
2021/07/28 18:22:09;;;;;;;3.73;2.70;;;24.50;99.90;;;;;;6217633;23;20187;-96
2021/07/28 18:24:42;;;;;;;5.67;2.67;;;24.60;99.90;;;;;;6217720;23;20229;-96
2021/07/28 18:27:16;;;;;;;5.40;2.77;;;24.60;99.90;;;;;;6220092;23;20203;-96
2021/07/28 18:29:47;;;;;;;5.70;2.80;;;24.70;99.90;;;;;;6218113;23;20188;-95
2021/07/28 18:32:19;;;;;;;5.87;3.03;;;24.80;99.90;;;;;;6218155;23;20180;-94
2021/07/28 18:34:50;;;;;;;3.73;2.90;;;24.90;99.90;;;;;;6221526;23;20251;-96
2021/07/28 18:37:21;;;;;;;7.53;2.60;;;25.00;99.90;;;;;;6240199;23;20229;-96
2021/07/28 18:39:54;;;;;;;4.63;3.10;;;24.90;99.90;;;;;;6225353;23;20187;-96
2021/07/28 18:42:26;;;;;;;8.87;3.10;;;24.80;99.90;;;;;;6249138;23;20187;-95
2021/07/28 18:44:57;;;;;;;4.50;3.07;;;24.90;99.90;;;;;;6250368;23;20176;-94
2021/07/28 18:47:28;;;;;;;9.00;2.97;;;24.80;99.90;;;;;;6247015;23;20627;-94
2021/07/28 18:49:59;;;;;;;5.73;2.90;;;24.80;99.90;;;;;;6248467;23;20172;-94
2021/07/28 18:52:31;;;;;;;3.70;2.70;;;24.80;99.90;;;;;;6223636;23;20194;-93
2021/07/28 18:55:05;;;;;;;6.27;3.03;;;24.90;99.90;;;;;;6248954;23;20180;-93
2021/07/28 18:57:37;;;;;;;4.07;3.13;;;25.00;99.90;;;;;;6247690;23;20494;-91
2021/07/28 19:00:12;;;;;;;3.73;3.00;;;25.20;99.90;;;;;;6250121;23;20176;-94
2021/07/28 19:02:46;;;;;;;6.80;2.97;;;25.10;99.90;;;;;;6224648;23;20176;-96
2021/07/28 19:05:17;;;;;;;3.50;2.60;;;25.10;99.90;;;;;;6255943;22;20172;-96
2021/07/28 19:07:48;;;;;;;3.13;2.83;;;25.40;99.90;;;;;;6250024;23;20356;-96
2021/07/28 19:10:21;;;;;;;5.80;2.83;;;25.90;99.90;;;;;;6226148;23;20262;-95
2021/07/28 19:12:52;;;;;;;7.07;2.70;;;26.40;99.90;;;;;;6225037;23;20175;-96
2021/07/28 19:15:24;;;;;;;3.67;2.33;;;26.60;99.90;;;;;;6272863;22;20155;-96
2021/07/28 19:17:55;;;;;;;4.70;3.07;;;26.90;99.90;;;;;;6270422;22;20171;-93
2021/07/28 19:20:26;;;;;;;6.53;3.17;;;27.10;99.90;;;;;;6266178;22;20176;-95
2021/07/28 19:22:58;;;;;;;5.40;2.87;;;27.30;99.90;;;;;;6262644;23;20318;-95
2021/07/28 19:25:31;;;;;;;4.03;2.90;;;27.50;99.90;;;;;;6262116;23;20171;-94
2021/07/28 19:28:03;;;;;;;5.80;2.90;;;27.80;99.90;;;;;;6251061;23;20181;-93
2021/07/28 19:30:34;;;;;;;4.50;3.20;;;27.50;99.90;;;;;;6254367;23;20187;-92
2021/07/28 19:33:06;;;;;;;6.47;5.90;;;27.30;99.90;;;;;;6248109;23;20175;-93
2021/07/28 19:35:37;;;;;;;4.53;3.10;;;27.20;99.90;;;;;;6223947;23;20229;-93
2021/07/28 19:38:08;;;;;;;8.60;2.97;;;26.90;99.90;;;;;;6225006;23;20195;-93
2021/07/28 19:40:42;;;;;;;4.77;2.90;;;26.90;99.90;;;;;;6248728;23;20645;-93
2021/07/28 19:43:17;;;;;;;3.63;3.00;;;27.00;99.90;;;;;;6247679;23;20175;-94
2021/07/28 19:45:48;;;;;;;4.37;2.67;;;27.10;99.90;;;;;;6248013;23;20167;-93
2021/07/28 19:48:21;;;;;;;5.40;2.80;;;27.20;99.90;;;;;;6248081;23;20495;-92
2021/07/28 19:50:52;;;;;;;3.83;2.67;;;27.20;99.90;;;;;;6246971;23;20199;-91
2021/07/28 19:53:23;;;;;;;7.10;3.30;;;26.80;99.90;;;;;;6248370;23;20587;-92
2021/07/28 19:55:56;;;;;;;6.80;3.23;;;26.90;99.90;;;;;;6248404;23;20228;-91
2021/07/28 19:58:27;;;;;;;4.97;3.00;;;26.80;99.90;;;;;;6248086;23;20247;-92
2021/07/28 20:00:58;;;;;;;5.87;3.10;;;27.00;99.90;;;;;;6247396;23;20195;-93
2021/07/28 20:03:30;;;;;;;4.03;2.77;;;26.80;99.90;;;;;;6245624;23;20176;-91
2021/07/28 20:06:04;;;;;;;4.83;2.70;;;26.70;99.90;;;;;;6247518;23;20670;-91
2021/07/28 20:08:35;;;;;;;8.03;2.77;;;26.50;99.90;;;;;;6246980;23;20195;-92
2021/07/28 20:11:10;;;;;;;5.90;2.90;;;26.50;99.90;;;;;;6246135;23;20200;-93
2021/07/28 20:13:41;;;;;;;4.23;2.67;;;26.60;99.90;;;;;;6248143;23;20187;-93
2021/07/28 20:16:13;;;;;;;4.10;2.70;;;26.70;99.90;;;;;;6248049;23;20231;-90
2021/07/28 20:18:44;;;;;;;3.33;2.80;;;26.90;99.90;;;;;;6221058;23;20218;-91
2021/07/28 20:21:17;;;;;;;5.03;2.53;;;26.90;99.90;;;;;;6246551;23;20562;-92
2021/07/28 20:23:47;;;;;;;3.47;2.90;;;26.80;99.90;;;;;;6221269;23;20218;-91
2021/07/28 20:26:20;;;;;;;5.60;2.90;;;27.00;99.90;;;;;;6248523;23;20208;-94
2021/07/28 20:28:54;;;;;;;5.10;2.80;;;27.40;99.90;;;;;;6248687;23;20191;-94
2021/07/28 20:31:28;;;;;;;2.97;2.60;;;27.50;99.90;;;;;;6248554;23;20568;-96
2021/07/28 20:34:00;;;;;;;2.77;2.17;;;27.50;99.90;;;;;;6251318;23;20171;-95
2021/07/28 20:36:32;;;;;;;3.00;2.50;;;27.70;99.90;;;;;;6249001;23;20235;-95
2021/07/28 20:39:03;;;;;;;3.33;2.70;;;27.70;99.80;;;;;;6250103;23;20188;-94
2021/07/28 20:41:37;;;;;;;4.27;2.33;;;27.90;99.90;;;;;;6247299;23;20198;-93
2021/07/28 20:44:08;;;;;;;2.90;2.60;;;27.90;99.90;;;;;;6250836;23;20191;-94
2021/07/28 20:46:39;;;;;;;4.87;2.80;;;28.20;99.90;;;;;;6248675;23;20504;-94
2021/07/28 20:49:10;;;;;;;6.23;2.63;;;28.40;99.20;;;;;;6248618;23;20207;-94
2021/07/28 20:51:41;;;;;;;3.67;2.50;;;28.50;98.40;;;;;;6221566;23;20869;-93
2021/07/28 20:54:12;;;;;;;3.20;2.90;;;28.40;97.70;;;;;;6243582;23;20191;-94
2021/07/28 20:56:46;;;;;;;7.43;2.47;;;28.50;98.30;;;;;;6248647;23;20187;-94
2021/07/28 20:59:18;;;;;;;3.87;2.67;;;28.70;98.30;;;;;;6248702;23;20191;-94
2021/07/28 21:01:49;;;;;;;4.13;2.80;;;28.60;98.60;;;;;;6248433;23;20587;-94
2021/07/28 21:04:20;;;;;;;5.27;2.23;;;28.70;98.90;;;;;;6248674;23;20254;-95
2021/07/28 21:06:51;;;;;;;3.97;2.70;;;28.90;99.30;;;;;;6248809;23;20648;-95
2021/07/28 21:09:22;;;;;;;4.87;2.77;;;29.40;98.20;;;;;;6248748;23;20184;-94
2021/07/28 21:11:56;;;;;;;3.90;2.73;;;29.10;97.20;;;;;;6247454;23;20175;-95
2021/07/28 21:14:27;;;;;;;6.63;2.90;;;28.70;96.60;;;;;;6248180;23;20193;-95
2021/07/28 21:17:02;;;;;;;3.97;2.60;;;29.00;98.20;;;;;;6223591;23;20200;-94
2021/07/28 21:19:33;;;;;;;4.73;2.90;;;28.80;96.60;;;;;;6248826;23;20208;-94
2021/07/28 21:22:06;;;;;;;6.03;3.10;;;28.80;96.30;;;;;;6248333;23;20171;-94
2021/07/28 21:24:37;;;;;;;3.30;2.87;;;28.90;95.60;;;;;;6223096;23;20199;-94
2021/07/28 21:27:09;;;;;;;4.07;2.40;;;29.00;95.30;;;;;;6249293;23;20603;-95
2021/07/28 21:29:41;;;;;;;4.57;2.50;;;29.20;94.10;;;;;;6250078;23;20254;-95
2021/07/28 21:32:13;;;;;;;2.33;2.10;;;29.40;91.30;;;;;;6249019;23;20195;-93
2021/07/28 21:34:48;;;;;;;3.37;2.30;;;29.40;92.00;;;;;;6249949;23;20176;-91
2021/07/28 21:37:20;;;;;;;2.50;2.30;;;29.30;91.90;;;;;;6223691;23;20230;-94
2021/07/28 21:39:51;;;;;;;2.90;2.20;;;29.40;91.40;;;;;;6269657;22;20172;-92
2021/07/28 21:42:27;;;;;;;3.73;2.30;;;29.60;91.50;;;;;;6271843;22;20171;-93
2021/07/28 21:44:59;;;;;;;4.13;2.57;;;29.90;90.40;;;;;;6270338;22;20178;-92
2021/07/28 21:47:35;;;;;;;3.33;2.67;;;30.10;90.90;;;;;;6250078;23;20236;-94
2021/07/28 21:50:07;;;;;;;4.57;2.50;;;30.20;90.30;;;;;;6223525;23;20160;-94
2021/07/28 21:52:50;;;;;;;2.60;2.10;;;30.30;90.60;;;;;;6249106;23;20207;-95
2021/07/28 21:55:24;;;;;;;2.78;2.13;;;30.50;91.00;;;;;;6250229;23;20179;-96
2021/07/28 21:58:05;;;;;;;3.17;2.37;;;30.50;89.50;;;;;;6248664;23;20187;-94
2021/07/28 22:00:36;;;;;;;5.80;2.28;;;30.60;91.20;;;;;;6248560;23;20634;-95
2021/07/28 22:03:09;;;;;;;4.45;2.53;;;30.70;90.00;;;;;;6247467;23;20172;-93
2021/07/28 22:05:41;;;;;;;5.03;2.95;;;30.80;90.80;;;;;;6247927;23;20646;-93
2021/07/28 22:08:13;;;;;;;4.57;2.90;;;31.00;91.40;;;;;;6246814;23;20203;-92
2021/07/28 22:10:45;;;;;;;3.88;2.53;;;31.30;89.30;;;;;;6249983;23;20184;-92
2021/07/28 22:13:23;;;;;;;4.57;2.45;;;31.40;88.50;;;;;;6247767;23;20265;-93
2021/07/28 22:15:54;;;;;;;5.22;2.70;;;31.30;86.10;;;;;;6247024;23;20167;-93
2021/07/28 22:18:25;;;;;;;3.38;2.33;;;31.50;86.90;;;;;;6247289;23;20218;-94
2021/07/28 22:20:56;;;;;;;2.40;2.20;;;31.50;86.00;;;;;;6247975;23;20183;-93
2021/07/28 22:23:28;;;;;;;4.78;2.78;;;31.50;87.80;;;;;;6246117;23;20199;-93
2021/07/28 22:25:59;;;;;;;3.13;2.83;;;31.50;89.20;;;;;;6248166;23;20176;-95
2021/07/28 22:28:32;;;;;;;3.25;2.60;;;31.80;84.10;;;;;;6248014;23;20164;-93
2021/07/28 22:31:03;;;;;;;2.88;2.40;;;32.00;83.20;;;;;;6248419;23;20176;-94
2021/07/28 22:33:34;;;;;;;3.03;2.72;;;32.10;82.70;;;;;;6245638;23;20187;-93
2021/07/28 22:36:06;;;;;;;4.65;2.63;;;32.20;84.40;;;;;;6248124;23;20176;-93
2021/07/28 22:38:37;;;;;;;3.17;2.60;;;32.30;80.90;;;;;;6247856;23;20187;-93